New Franklin, Pennsylvania
Current Conditions -  °F | °C
As of 11:53 AM on Saturday 25 Oct 2014 (Local Time) from KHGR Reporting Station
Clear Clear  
Wind Chill: 62°   Ceiling: Unl
Heat Index: 62°   Visibility: 10mi
Dew Point: 41°   Wind: 12mph
Humidity: 46%   Direction: 230°SW
Pressure: 29.9"   Gusts: NA
Location:  39.9438°N, 77.6827°W
Report Text: KHGR 251553Z 23010KT 10SM CLR 17/05 A2990 RMK AO2 SLP132 T01670050
Loading
Personal Weather Stations






























Interactive Weather Map
Tropical Storm Tracking
New forecast layout! Learn more

10-Day Weather Forecast

Advertisements
Track Severe Weather on mobile